メインページ
METAR-TAF:

METAR-TAF

空港 :

アイラ島, スコットランド

緯度: 55-40-55N, 経度: 006-15-24W, 海抜: 16m

現時点の気象観測

当レポートは28分前の20:50(UTC)に作成
南西の風 8kt、南/南西から西の間で変化する
気温 15°C
湿度 100%
気圧 1014 hPa
視程: 1300m

METAR: EGPI 212050Z AUTO 22008KT 200V260 1300 BR OVC002/// 15/15 Q1014

時間: 22:18 (21:18 UTC)

予報

当レポートは7時間20分前の13:58(UTC)に作成
予報は21日の 15時(UTC)から 21日の 18時(UTC)まで有効
西の風 6kt
視程10km以上
高度2000ftの雲は散在している
確率 40% :
21日の 15時(UTC)から 21日の 18時(UTC)まで一時的に
視程: 8000m
高度800ftの千切れ雲あり
小雨

TAF: EGPI 211358Z 2115/2118 28006KT 9999 SCT020 PROB40 TEMPO 2115/2118 8000 -RA BKN008

4,000以上の空港の気象観測と天気予報(METAR報とTAF報)

利用可能な観測所は地図上に黄色い丸と赤い丸で示す。

丸の上にカーソルを重ねると観測所名を参照できる。

次にクリックすると気象観測と天気予報を参照できる。

マップの切り替え:黒色「×」印の緑ボタンをクリックして拡大、「-」印の緑ボタンをクリックして縮小、緑色の三角印をクリックして隣りの地図に切り替え


METAR-TAF: